Terminal Aerodrome Forecast
Issued by NWS

Home | Current Version | Previous Version | Text Only | Print | Product List | Glossary Off
Versions: 1 2 3 4 5 6 7 8 9 10 11 12 13 14 15 16 17 18 19 20 21 22 23 24

000
FTUS43 KMPX 011700
TAFAXN
TAF
KAXN 011736Z 0118/0218 15012KT 4SM BR OVC005
     FM011900 18011KT P6SM BKN007 OVC015
     FM012000 21008KT P6SM VCSH BKN015 BKN050
     FM020000 25007KT P6SM SCT020 BKN080
     FM020600 30005KT 6SM BR BKN100 BKN250
     FM021500 32006KT P6SM OVC100=

USA.gov is the U.S. government's official web portal to all federal, state and local government web resources and services.